createdAt,value
2018-05-04T00:02:09.743Z,5.00
2018-05-04T00:04:37.200Z,7.53
2018-05-04T00:07:04.673Z,5.33
2018-05-04T00:09:32.117Z,6.63
2018-05-04T00:11:59.570Z,9.33
2018-05-04T00:14:27.009Z,7.63
2018-05-04T00:16:54.464Z,8.63
2018-05-04T00:19:21.897Z,7.53
2018-05-04T00:21:50.212Z,10.37
2018-05-04T00:24:17.663Z,6.77
2018-05-04T00:26:45.164Z,9.83
2018-05-04T00:29:12.589Z,6.80
2018-05-04T00:31:40.030Z,8.60
2018-05-04T00:34:07.494Z,8.53
2018-05-04T00:36:34.944Z,4.93
2018-05-04T00:39:02.393Z,9.03
2018-05-04T00:41:30.597Z,8.50
2018-05-04T00:43:58.079Z,5.73
2018-05-04T00:46:25.517Z,7.97
2018-05-04T00:48:52.982Z,9.03
2018-05-04T00:51:20.458Z,4.70
2018-05-04T00:53:59.786Z,6.40
2018-05-04T00:56:27.232Z,10.43
2018-05-04T00:58:54.689Z,9.00
2018-05-04T01:01:22.129Z,9.23
2018-05-04T01:03:49.577Z,12.40
2018-05-04T01:06:17.034Z,7.63
2018-05-04T01:08:44.613Z,11.10
2018-05-04T01:11:12.816Z,12.60
2018-05-04T01:13:40.243Z,7.40
2018-05-04T01:16:07.713Z,11.33
2018-05-04T01:18:35.184Z,7.73
2018-05-04T01:21:02.638Z,5.33
2018-05-04T01:23:30.085Z,10.13
2018-05-04T01:25:57.533Z,9.20
2018-05-04T01:28:25.000Z,8.70
2018-05-04T01:30:52.453Z,9.40
2018-05-04T01:33:19.913Z,7.23
2018-05-04T01:35:47.365Z,6.77
2018-05-04T01:38:14.821Z,10.77
2018-05-04T01:40:42.282Z,9.43
2018-05-04T01:43:09.741Z,7.17
2018-05-04T01:45:37.217Z,6.87
2018-05-04T01:48:04.673Z,8.50
2018-05-04T01:50:32.119Z,6.83
2018-05-04T01:52:59.568Z,5.83
2018-05-04T01:55:27.023Z,7.57
2018-05-04T01:57:54.461Z,10.17
2018-05-04T02:00:21.992Z,7.27
2018-05-04T02:02:49.385Z,9.03
2018-05-04T02:05:16.853Z,6.63
2018-05-04T02:07:44.355Z,6.63
2018-05-04T02:10:11.765Z,7.67
2018-05-04T02:12:39.213Z,5.97
2018-05-04T02:15:06.675Z,8.93
2018-05-04T02:17:34.117Z,6.73
2018-05-04T02:20:01.593Z,8.73
2018-05-04T02:22:29.041Z,8.53
2018-05-04T02:24:56.493Z,10.83
2018-05-04T02:27:23.946Z,10.70
2018-05-04T02:29:51.421Z,10.87
2018-05-04T02:32:18.873Z,10.97
2018-05-04T02:34:46.332Z,8.03
2018-05-04T02:37:13.809Z,7.57
2018-05-04T02:39:41.328Z,5.57
2018-05-04T02:42:08.784Z,5.30
2018-05-04T02:44:36.256Z,8.27
2018-05-04T02:47:03.740Z,7.17
2018-05-04T02:49:31.237Z,8.93
2018-05-04T02:51:58.821Z,7.37
2018-05-04T02:54:26.292Z,11.97
2018-05-04T02:56:53.762Z,10.17
2018-05-04T02:59:21.258Z,9.90
2018-05-04T03:01:48.720Z,8.33
2018-05-04T03:04:16.237Z,8.33
2018-05-04T03:06:43.716Z,8.27
2018-05-04T03:09:11.946Z,9.27
2018-05-04T03:11:39.413Z,10.40
2018-05-04T03:14:06.884Z,8.97
2018-05-04T03:16:34.338Z,7.83
2018-05-04T03:19:01.807Z,12.63
2018-05-04T03:21:29.280Z,6.57
2018-05-04T03:23:56.736Z,7.20
2018-05-04T03:26:24.977Z,5.57
2018-05-04T03:28:52.420Z,7.53
2018-05-04T03:31:19.900Z,8.17
2018-05-04T03:33:47.357Z,8.20
2018-05-04T03:36:14.820Z,10.70
2018-05-04T03:38:42.288Z,11.97
2018-05-04T03:41:10.504Z,9.73
2018-05-04T03:43:37.984Z,8.23
2018-05-04T03:46:05.443Z,11.13
2018-05-04T03:48:32.912Z,11.73
2018-05-04T03:51:00.398Z,8.87
2018-05-04T03:53:27.852Z,9.23
2018-05-04T03:55:55.321Z,7.97
2018-05-04T03:58:34.453Z,11.63
2018-05-04T04:01:13.851Z,9.27
2018-05-04T04:03:53.014Z,8.67
2018-05-04T04:06:21.260Z,13.40
2018-05-04T04:08:48.736Z,13.50
2018-05-04T04:11:16.992Z,16.43
2018-05-04T04:13:44.508Z,16.40
2018-05-04T04:16:11.939Z,12.73
2018-05-04T04:18:40.184Z,11.87
2018-05-04T04:21:07.656Z,12.83
2018-05-04T04:23:35.136Z,11.37
2018-05-04T04:26:03.377Z,11.17
2018-05-04T04:28:31.711Z,16.50
2018-05-04T04:30:59.201Z,17.53
2018-05-04T04:33:27.451Z,22.40
2018-05-04T04:35:54.938Z,17.50
2018-05-04T04:38:22.389Z,15.77
2018-05-04T04:40:49.887Z,14.77
2018-05-04T04:43:18.129Z,13.67
2018-05-04T04:45:45.619Z,12.17
2018-05-04T04:48:13.099Z,13.97
2018-05-04T04:50:40.548Z,14.50
2018-05-04T04:53:08.023Z,11.53
2018-05-04T04:55:35.475Z,13.93
2018-05-04T04:58:02.949Z,11.90
2018-05-04T05:00:30.402Z,14.80
2018-05-04T05:02:57.901Z,12.27
2018-05-04T05:05:25.356Z,15.50
2018-05-04T05:07:52.856Z,16.77
2018-05-04T05:10:20.319Z,16.80
2018-05-04T05:12:48.913Z,15.80
2018-05-04T05:15:16.361Z,15.60
2018-05-04T05:17:43.836Z,14.23
2018-05-04T05:20:11.323Z,18.77
2018-05-04T05:22:38.797Z,12.97
2018-05-04T05:25:07.025Z,16.13
2018-05-04T05:27:34.483Z,15.73
2018-05-04T05:30:01.966Z,19.00
2018-05-04T05:32:30.362Z,20.07
2018-05-04T05:34:58.577Z,17.63
2018-05-04T05:37:26.043Z,19.77
2018-05-04T05:39:53.516Z,15.83
2018-05-04T05:42:21.127Z,15.00
2018-05-04T05:44:48.561Z,17.47
2018-05-04T05:47:16.012Z,18.53
2018-05-04T05:49:43.497Z,18.03
2018-05-04T05:52:10.979Z,17.23
2018-05-04T05:54:39.278Z,20.87
2018-05-04T05:57:06.660Z,18.97
2018-05-04T05:59:34.137Z,21.00
2018-05-04T06:02:01.623Z,22.07
2018-05-04T06:04:29.089Z,20.93
2018-05-04T06:06:57.154Z,23.10
2018-05-04T06:09:24.660Z,17.07
2018-05-04T06:11:52.087Z,17.07
2018-05-04T06:14:19.604Z,15.63
2018-05-04T06:16:47.177Z,20.50
2018-05-04T06:19:14.621Z,15.83
2018-05-04T06:21:42.089Z,16.10
2018-05-04T06:24:09.547Z,12.33
2018-05-04T06:26:37.064Z,13.07
2018-05-04T06:29:05.280Z,16.07
2018-05-04T06:31:32.764Z,11.30
2018-05-04T06:34:00.208Z,15.37
2018-05-04T06:36:27.732Z,8.63
2018-05-04T06:38:55.215Z,10.23
2018-05-04T06:41:22.685Z,13.20
2018-05-04T06:43:50.141Z,13.73
2018-05-04T06:46:17.615Z,11.87
2018-05-04T06:48:45.123Z,13.40
2018-05-04T06:51:12.594Z,12.50
2018-05-04T06:53:40.062Z,12.20
2018-05-04T06:56:07.533Z,11.60
2018-05-04T06:58:35.008Z,9.13
2018-05-04T07:01:02.468Z,11.83
2018-05-04T07:03:29.988Z,10.20
2018-05-04T07:05:57.436Z,9.17
2018-05-04T07:08:24.900Z,8.50
2018-05-04T07:10:52.408Z,7.97
2018-05-04T07:13:19.888Z,10.70
2018-05-04T07:15:48.112Z,6.27
2018-05-04T07:18:15.570Z,7.97
2018-05-04T07:20:43.051Z,5.77
2018-05-04T07:23:10.500Z,6.60
2018-05-04T07:25:37.968Z,7.77
2018-05-04T07:28:05.421Z,7.73
2018-05-04T07:30:32.905Z,8.63
2018-05-04T07:33:01.136Z,8.90
2018-05-04T07:35:28.601Z,8.17
2018-05-04T07:37:56.060Z,8.57
2018-05-04T07:40:23.512Z,10.23
2018-05-04T07:42:50.985Z,5.73
2018-05-04T07:45:18.448Z,8.13
2018-05-04T07:47:46.695Z,9.27
2018-05-04T07:50:14.176Z,10.33
2018-05-04T07:52:41.708Z,7.87
2018-05-04T07:55:09.253Z,7.37
2018-05-04T07:57:36.649Z,6.20
2018-05-04T08:00:04.124Z,9.43
2018-05-04T08:02:32.344Z,7.20
2018-05-04T08:04:59.832Z,8.27
2018-05-04T08:07:27.292Z,7.60
2018-05-04T08:09:54.773Z,9.03
2018-05-04T08:12:22.996Z,9.80
2018-05-04T08:14:50.512Z,5.87
2018-05-04T08:17:17.971Z,5.50
2018-05-04T08:19:45.432Z,6.73
2018-05-04T08:22:12.937Z,8.87
2018-05-04T08:24:40.392Z,5.70
2018-05-04T08:27:07.860Z,5.37
2018-05-04T08:29:35.407Z,8.77
2018-05-04T08:32:02.856Z,6.40
2018-05-04T08:34:30.336Z,7.90
2018-05-04T08:36:57.800Z,7.70
2018-05-04T08:39:26.062Z,12.30
2018-05-04T08:41:53.620Z,7.17
2018-05-04T08:44:21.076Z,6.63
2018-05-04T08:46:48.622Z,6.07
2018-05-04T08:49:16.076Z,12.03
2018-05-04T08:51:43.524Z,4.37
2018-05-04T08:54:10.984Z,8.00
2018-05-04T08:56:38.479Z,7.87
2018-05-04T08:59:05.948Z,5.97
2018-05-04T09:01:34.190Z,9.20
2018-05-04T09:04:01.661Z,7.43
2018-05-04T09:06:29.140Z,5.20
2018-05-04T09:08:57.364Z,11.27
2018-05-04T09:11:24.860Z,4.07
2018-05-04T09:13:54.175Z,6.47
2018-05-04T09:16:22.539Z,6.13
2018-05-04T09:18:50.012Z,5.23
2018-05-04T09:21:18.249Z,6.03
2018-05-04T09:23:45.720Z,5.63
2018-05-04T09:26:13.192Z,6.20
2018-05-04T09:28:40.661Z,4.17
2018-05-04T09:31:08.104Z,5.63
2018-05-04T09:33:35.572Z,7.47
2018-05-04T09:36:03.031Z,4.63
2018-05-04T09:38:30.669Z,7.77
2018-05-04T09:40:58.112Z,5.27
2018-05-04T09:43:25.647Z,5.20
2018-05-04T09:45:53.031Z,5.60
2018-05-04T09:48:21.289Z,6.60
2018-05-04T09:50:48.758Z,6.67
2018-05-04T09:53:16.233Z,6.77
2018-05-04T09:55:43.688Z,5.70
2018-05-04T09:58:11.236Z,4.30
2018-05-04T10:00:38.704Z,5.97
2018-05-04T10:03:06.253Z,6.17
2018-05-04T10:05:33.814Z,4.20
2018-05-04T10:08:01.296Z,6.07
2018-05-04T10:10:29.508Z,4.20
2018-05-04T10:12:57.116Z,5.17
2018-05-04T10:15:24.589Z,6.83
2018-05-04T10:17:52.840Z,6.47
2018-05-04T10:20:20.309Z,6.03
2018-05-04T10:22:47.788Z,6.73
2018-05-04T10:25:15.236Z,10.70
2018-05-04T10:27:42.700Z,5.63
2018-05-04T10:30:10.169Z,8.27
2018-05-04T10:32:37.660Z,7.33
2018-05-04T10:35:05.150Z,6.17
2018-05-04T10:37:34.451Z,5.60
2018-05-04T10:40:02.116Z,6.20
2018-05-04T10:42:30.359Z,6.00
2018-05-04T10:44:57.843Z,6.37
2018-05-04T10:47:25.299Z,6.17
2018-05-04T10:49:52.758Z,6.97
2018-05-04T10:52:20.240Z,10.07
2018-05-04T10:54:48.464Z,7.20
2018-05-04T10:57:15.966Z,5.70
2018-05-04T10:59:43.412Z,4.90
2018-05-04T11:02:10.901Z,3.90
2018-05-04T11:04:38.376Z,5.63
2018-05-04T11:07:05.860Z,7.20
2018-05-04T11:09:33.321Z,6.00
2018-05-04T11:12:00.817Z,6.60
2018-05-04T11:14:28.249Z,7.17
2018-05-04T11:16:55.715Z,6.53
2018-05-04T11:19:23.247Z,4.27
2018-05-04T11:21:50.792Z,14.47
2018-05-04T11:24:18.281Z,6.07
2018-05-04T11:26:45.828Z,5.13
2018-05-04T11:29:13.313Z,5.80
2018-05-04T11:31:41.532Z,20.07
2018-05-04T11:34:09.162Z,11.53
2018-05-04T11:36:36.621Z,6.30
2018-05-04T11:39:04.250Z,8.30
2018-05-04T11:41:31.717Z,7.20
2018-05-04T11:43:59.197Z,6.03
2018-05-04T11:46:26.654Z,6.47
2018-05-04T11:48:54.124Z,4.83
2018-05-04T11:51:23.297Z,6.00
2018-05-04T11:53:51.536Z,3.83
2018-05-04T11:56:19.017Z,4.20
2018-05-04T11:58:46.496Z,5.40
2018-05-04T12:01:13.956Z,5.33
2018-05-04T12:03:41.575Z,6.03
2018-05-04T12:06:09.992Z,6.30
2018-05-04T12:08:37.677Z,4.70
2018-05-04T12:11:05.179Z,5.73
2018-05-04T12:13:32.651Z,6.27
2018-05-04T12:16:00.132Z,8.27
2018-05-04T12:18:27.717Z,6.47
2018-05-04T12:20:55.170Z,4.83
2018-05-04T12:23:22.645Z,5.53
2018-05-04T12:25:50.178Z,5.10
2018-05-04T12:28:17.700Z,5.47
2018-05-04T12:30:45.272Z,5.93
2018-05-04T12:33:13.513Z,4.40
2018-05-04T12:35:41.001Z,4.10
2018-05-04T12:38:09.275Z,10.00
2018-05-04T12:40:36.793Z,3.90
2018-05-04T12:43:04.251Z,5.03
2018-05-04T12:45:31.893Z,6.80
2018-05-04T12:47:59.369Z,5.77
2018-05-04T12:50:26.842Z,4.83
2018-05-04T12:52:54.329Z,3.50
2018-05-04T12:55:21.796Z,5.03
2018-05-04T12:57:50.013Z,6.90
2018-05-04T13:00:17.500Z,4.53
2018-05-04T13:02:44.952Z,6.13
2018-05-04T13:05:12.427Z,4.57
2018-05-04T13:07:39.904Z,5.37
2018-05-04T13:10:08.161Z,8.03
2018-05-04T13:12:35.624Z,11.33
2018-05-04T13:15:03.884Z,6.60
2018-05-04T13:17:31.334Z,3.60
2018-05-04T13:19:58.817Z,11.10
2018-05-04T13:22:26.272Z,3.73
2018-05-04T13:24:54.530Z,5.10
2018-05-04T13:27:21.986Z,3.93
2018-05-04T13:29:49.460Z,5.10
2018-05-04T13:32:16.916Z,6.43
2018-05-04T13:34:45.160Z,3.97
2018-05-04T13:37:12.634Z,4.33
2018-05-04T13:39:40.112Z,6.67
2018-05-04T13:42:07.564Z,2.67
2018-05-04T13:44:35.123Z,4.53
2018-05-04T13:47:02.505Z,5.33
2018-05-04T13:49:30.179Z,2.63
2018-05-04T13:51:57.641Z,5.40
2018-05-04T13:54:25.224Z,2.50
2018-05-04T13:56:52.687Z,5.13
2018-05-04T13:59:20.164Z,6.07
2018-05-04T14:01:47.664Z,5.73
2018-05-04T14:04:15.118Z,2.50
2018-05-04T14:06:42.568Z,6.93
2018-05-04T14:09:11.930Z,6.00
2018-05-04T14:11:39.396Z,4.17
2018-05-04T14:14:06.868Z,3.17
2018-05-04T14:16:34.323Z,6.33
2018-05-04T14:19:02.560Z,4.63
2018-05-04T14:21:30.024Z,6.17
2018-05-04T14:23:57.529Z,2.83
2018-05-04T14:26:25.926Z,4.13
2018-05-04T14:28:53.368Z,4.90
2018-05-04T14:31:20.840Z,6.83
2018-05-04T14:33:48.290Z,3.97
2018-05-04T14:36:15.755Z,5.37
2018-05-04T14:38:43.213Z,8.37
2018-05-04T14:41:10.700Z,4.60
2018-05-04T14:43:38.214Z,5.27
2018-05-04T14:46:05.688Z,3.93
2018-05-04T14:48:33.151Z,5.83
2018-05-04T14:51:00.604Z,6.33
2018-05-04T14:53:28.089Z,5.93
2018-05-04T14:55:55.548Z,3.73
2018-05-04T14:58:23.028Z,3.50
2018-05-04T15:00:51.267Z,8.33
2018-05-04T15:03:18.739Z,4.37
2018-05-04T15:05:46.222Z,5.77
2018-05-04T15:08:14.468Z,5.17
2018-05-04T15:10:42.698Z,5.43
2018-05-04T15:13:10.144Z,4.87
2018-05-04T15:15:37.633Z,4.30
2018-05-04T15:18:05.131Z,7.03
2018-05-04T15:20:32.565Z,9.87
2018-05-04T15:23:00.021Z,4.80
2018-05-04T15:25:27.501Z,4.50
2018-05-04T15:27:54.986Z,8.20
2018-05-04T15:30:22.467Z,4.10
2018-05-04T15:32:50.132Z,8.67
2018-05-04T15:35:17.608Z,7.07
2018-05-04T15:37:45.082Z,5.97
2018-05-04T15:40:12.544Z,7.93
2018-05-04T15:42:40.000Z,7.07
2018-05-04T15:45:07.484Z,5.13
2018-05-04T15:47:35.699Z,8.00
2018-05-04T15:50:08.852Z,5.67
2018-05-04T15:52:36.303Z,7.53
2018-05-04T15:55:04.715Z,5.00
2018-05-04T15:57:32.196Z,6.53
2018-05-04T15:59:59.903Z,4.13
2018-05-04T16:02:27.295Z,7.27
2018-05-04T16:04:54.773Z,5.80
2018-05-04T16:07:22.257Z,8.67
2018-05-04T16:09:49.713Z,4.10
2018-05-04T16:12:17.373Z,6.07
2018-05-04T16:14:44.932Z,3.80
2018-05-04T16:17:13.167Z,5.60
2018-05-04T16:19:40.639Z,4.13
2018-05-04T16:22:08.256Z,6.50
2018-05-04T16:24:35.661Z,5.37
2018-05-04T16:27:06.154Z,4.70
2018-05-04T16:29:33.726Z,4.47
2018-05-04T16:32:01.192Z,3.90
2018-05-04T16:34:28.648Z,3.83
2018-05-04T16:36:56.116Z,5.63
2018-05-04T16:39:23.576Z,5.27
2018-05-04T16:41:51.823Z,11.23
2018-05-04T16:44:19.298Z,5.67
2018-05-04T16:46:52.523Z,6.17
2018-05-04T16:49:26.446Z,5.77
2018-05-04T16:51:53.932Z,3.27
2018-05-04T16:54:21.499Z,5.70
2018-05-04T16:56:48.957Z,4.80
2018-05-04T16:59:16.464Z,4.93
2018-05-04T17:01:45.425Z,7.30
2018-05-04T17:04:12.883Z,9.13
2018-05-04T17:06:40.358Z,7.77
2018-05-04T17:09:07.862Z,9.50
2018-05-04T17:11:35.268Z,7.63
2018-05-04T17:14:02.720Z,6.97
2018-05-04T17:16:30.202Z,8.37
2018-05-04T17:18:57.666Z,9.40
2018-05-04T17:21:25.140Z,8.23
2018-05-04T17:23:53.362Z,5.97
2018-05-04T17:26:20.841Z,9.20
2018-05-04T17:28:48.316Z,6.80
2018-05-04T17:31:16.541Z,6.30
2018-05-04T17:33:44.003Z,8.20
2018-05-04T17:36:11.460Z,8.80
2018-05-04T17:38:38.939Z,8.23
2018-05-04T17:41:06.439Z,9.70
2018-05-04T17:43:34.677Z,7.33
2018-05-04T17:46:02.191Z,6.87
2018-05-04T17:48:29.750Z,9.03
2018-05-04T17:50:57.924Z,8.50
2018-05-04T17:53:25.384Z,5.00
2018-05-04T17:55:52.857Z,8.00
2018-05-04T17:58:20.333Z,6.20
2018-05-04T18:00:48.584Z,8.33
2018-05-04T18:03:16.063Z,7.73
2018-05-04T18:05:43.508Z,7.13
2018-05-04T18:08:10.965Z,7.30
2018-05-04T18:10:38.440Z,12.83
2018-05-04T18:13:05.889Z,6.27
2018-05-04T18:15:33.365Z,8.37
2018-05-04T18:18:02.372Z,7.13
2018-05-04T18:20:30.015Z,6.70
2018-05-04T18:22:57.464Z,9.63
2018-05-04T18:25:25.740Z,7.30
2018-05-04T18:27:53.227Z,6.73
2018-05-04T18:30:20.687Z,6.30
2018-05-04T18:32:48.910Z,4.23
2018-05-04T18:35:16.478Z,8.17
2018-05-04T18:37:43.927Z,5.90
2018-05-04T18:40:11.406Z,8.77
2018-05-04T18:42:38.956Z,8.10
2018-05-04T18:45:06.455Z,4.23
2018-05-04T18:47:34.697Z,5.57
2018-05-04T18:50:02.188Z,4.83
2018-05-04T18:52:30.464Z,4.23
2018-05-04T18:54:57.920Z,7.83
2018-05-04T18:57:26.164Z,9.50
2018-05-04T18:59:53.646Z,8.37
2018-05-04T19:02:27.470Z,4.90
2018-05-04T19:04:54.960Z,7.37
2018-05-04T19:07:22.429Z,6.13
2018-05-04T19:09:49.908Z,6.67
2018-05-04T19:12:17.361Z,6.53
2018-05-04T19:14:44.856Z,6.60
2018-05-04T19:17:12.336Z,6.43
2018-05-04T19:19:39.880Z,10.13
2018-05-04T19:22:08.675Z,6.73
2018-05-04T19:24:36.117Z,6.23
2018-05-04T19:27:03.620Z,6.17
2018-05-04T19:29:31.081Z,5.43
2018-05-04T19:31:58.583Z,4.87
2018-05-04T19:34:26.872Z,7.43
2018-05-04T19:36:54.284Z,4.73
2018-05-04T19:39:21.760Z,6.80
2018-05-04T19:41:49.240Z,5.67
2018-05-04T19:44:16.852Z,8.37
2018-05-04T19:46:44.326Z,5.97
2018-05-04T19:49:11.776Z,8.10
2018-05-04T19:51:39.273Z,7.17
2018-05-04T19:54:06.755Z,7.60
2018-05-04T19:56:34.212Z,6.67
2018-05-04T19:59:01.744Z,6.00
2018-05-04T20:01:29.916Z,4.90
2018-05-04T20:03:58.160Z,10.57
2018-05-04T20:06:25.620Z,5.27
2018-05-04T20:08:53.873Z,4.60
2018-05-04T20:11:21.343Z,6.20
2018-05-04T20:13:48.812Z,4.17
2018-05-04T20:16:17.144Z,6.77
2018-05-04T20:18:44.628Z,3.67
2018-05-04T20:21:12.109Z,5.03
2018-05-04T20:23:39.558Z,8.27
2018-05-04T20:26:07.813Z,5.13
2018-05-04T20:28:35.289Z,5.97
2018-05-04T20:31:02.745Z,3.83
2018-05-04T20:33:30.988Z,3.50
2018-05-04T20:35:58.450Z,6.20
2018-05-04T20:38:25.915Z,6.07
2018-05-04T20:40:53.363Z,7.23
2018-05-04T20:43:20.847Z,6.97
2018-05-04T20:45:48.296Z,3.90
2018-05-04T20:48:15.747Z,9.07
2018-05-04T20:50:43.212Z,8.00
2018-05-04T20:53:10.676Z,6.97
2018-05-04T20:55:38.122Z,5.93
2018-05-04T20:58:05.588Z,13.93
2018-05-04T21:00:33.056Z,11.50
2018-05-04T21:03:00.520Z,8.73
2018-05-04T21:05:27.991Z,11.40
2018-05-04T21:07:55.468Z,14.00
2018-05-04T21:10:22.928Z,15.30
2018-05-04T21:12:50.432Z,19.30
2018-05-04T21:15:17.890Z,15.27
2018-05-04T21:17:45.346Z,11.80
2018-05-04T21:20:12.809Z,8.37
2018-05-04T21:22:41.023Z,9.57
2018-05-04T21:25:08.461Z,7.13
2018-05-04T21:27:35.963Z,10.70
2018-05-04T21:30:03.453Z,10.23
2018-05-04T21:32:31.696Z,10.13
2018-05-04T21:34:59.147Z,8.37
2018-05-04T21:37:26.644Z,7.70
2018-05-04T21:39:54.872Z,8.80
2018-05-04T21:42:22.348Z,8.17
2018-05-04T21:44:49.881Z,8.00
2018-05-04T21:47:17.290Z,6.40
2018-05-04T21:49:44.742Z,8.97
2018-05-04T21:52:12.203Z,8.53
2018-05-04T21:54:40.433Z,5.80
2018-05-04T21:57:07.911Z,6.30
2018-05-04T21:59:35.364Z,7.03
2018-05-04T22:02:02.908Z,10.40
2018-05-04T22:04:30.364Z,6.80
2018-05-04T22:06:57.825Z,9.40
2018-05-04T22:09:26.054Z,8.97
2018-05-04T22:11:53.504Z,11.30
2018-05-04T22:14:21.747Z,8.77
2018-05-04T22:16:49.221Z,6.87
2018-05-04T22:19:16.717Z,11.10
2018-05-04T22:21:44.165Z,7.23
2018-05-04T22:24:11.616Z,10.57
2018-05-04T22:29:12.848Z,8.63
2018-05-04T22:31:40.320Z,10.80
2018-05-04T22:34:07.776Z,8.23
2018-05-04T22:36:36.037Z,10.93
2018-05-04T22:39:03.493Z,10.13
2018-05-04T22:41:30.976Z,10.83
2018-05-04T22:43:58.444Z,10.67
2018-05-04T22:46:26.696Z,8.83
2018-05-04T22:48:54.142Z,8.73
2018-05-04T22:51:21.615Z,11.83
2018-05-04T22:53:49.834Z,13.17
2018-05-04T22:56:18.090Z,9.80
2018-05-04T22:58:45.568Z,11.07
2018-05-04T23:01:13.023Z,11.07
2018-05-04T23:03:40.515Z,10.00
2018-05-04T23:06:07.966Z,11.27
2018-05-04T23:08:35.439Z,10.43
2018-05-04T23:11:02.906Z,11.00
2018-05-04T23:13:31.147Z,10.23
2018-05-04T23:15:58.612Z,12.33
2018-05-04T23:18:26.169Z,12.50
2018-05-04T23:20:53.591Z,10.07
2018-05-04T23:23:21.048Z,12.43
2018-05-04T23:25:48.524Z,12.17
2018-05-04T23:28:15.989Z,11.43
2018-05-04T23:30:43.476Z,10.63
2018-05-04T23:33:11.700Z,14.93
2018-05-04T23:35:39.268Z,10.77
2018-05-04T23:38:06.708Z,9.83
2018-05-04T23:40:34.300Z,12.63
2018-05-04T23:43:01.745Z,9.97
2018-05-04T23:45:29.215Z,12.63
2018-05-04T23:47:56.680Z,10.70
2018-05-04T23:50:24.176Z,10.10
2018-05-04T23:52:51.655Z,9.27
2018-05-04T23:55:19.112Z,10.87
2018-05-04T23:57:46.588Z,11.67
